Time;durP1;ratioP1;P1;durP2;ratioP2;P2;SDS_P1;SDS_P2;PMS_P1;PMS_P2;Temp;Humidity;BMP_temperature;BMP_pressure;BME280_temperature;BME280_humidity;BME280_pressure;Samples;Min_cycle;Max_cycle;Signal;HPM_P1;HPM_P2
2023/08/14 00:00:31;;;;;;;11.75;7.85;;;;;;;14.50;100.00;101527.44;10443942;28;20939;-70
2023/08/14 00:05:33;;;;;;;13.90;8.88;;;;;;;14.43;100.00;101529.59;10445357;28;20061;-70
2023/08/14 00:10:33;;;;;;;13.85;7.93;;;;;;;14.39;100.00;101529.28;10443322;28;20045;-70
2023/08/14 00:15:33;;;;;;;17.85;9.95;;;;;;;14.36;100.00;101538.13;10434668;28;20049;-69
2023/08/14 00:20:34;;;;;;;15.23;10.10;;;;;;;14.39;100.00;101531.25;10446125;28;20057;-70
2023/08/14 00:25:34;;;;;;;17.05;9.13;;;;;;;14.09;100.00;101480.00;10455344;28;20338;-70
2023/08/14 00:30:35;;;;;;;13.68;8.30;;;;;;;14.35;100.00;101521.78;10450440;28;20067;-70
2023/08/14 00:35:35;;;;;;;16.92;7.72;;;;;;;14.25;100.00;101512.28;10451313;28;20037;-73
2023/08/14 00:40:36;;;;;;;15.10;9.30;;;;;;;14.20;100.00;101512.25;10456834;28;20040;-71
2023/08/14 00:45:36;;;;;;;15.63;9.88;;;;;;;14.23;100.00;101508.94;10439682;28;20033;-70
2023/08/14 00:50:37;;;;;;;15.43;9.05;;;;;;;14.21;100.00;101511.13;10435272;28;20428;-70
2023/08/14 00:55:37;;;;;;;17.42;10.63;;;;;;;14.17;100.00;101515.53;10453199;28;20044;-70
2023/08/14 01:00:38;;;;;;;18.30;10.10;;;;;;;14.20;100.00;101515.00;10453388;28;20029;-71
2023/08/14 01:05:38;;;;;;;16.55;9.95;;;;;;;14.09;100.00;101502.16;10457974;28;20076;-70
2023/08/14 01:11:00;;;;;;;20.40;11.80;;;;;;;14.14;100.00;101516.06;10410211;28;20044;-70
2023/08/14 01:16:04;;;;;;;20.08;11.90;;;;;;;14.10;100.00;101523.22;10454732;28;20037;-70
2023/08/14 01:21:17;;;;;;;21.70;11.73;;;;;;;14.04;100.00;101504.88;10450711;28;20040;-69
2023/08/14 01:26:17;;;;;;;17.90;11.32;;;;;;;14.00;100.00;101492.66;10456635;28;20132;-70
2023/08/14 01:31:17;;;;;;;19.08;11.10;;;;;;;14.04;100.00;101505.72;10455072;28;20052;-70
2023/08/14 01:36:39;;;;;;;18.50;10.43;;;;;;;14.00;100.00;101492.66;10433967;28;20041;-70
2023/08/14 01:42:08;;;;;;;16.35;9.77;;;;;;;13.94;100.00;101494.53;10454850;28;20092;-70
2023/08/14 01:47:11;;;;;;;15.90;9.02;;;;;;;13.86;100.00;101495.00;10446915;28;20451;-70
2023/08/14 01:52:11;;;;;;;18.08;10.05;;;;;;;13.87;100.00;101493.91;10437365;28;20063;-70
2023/08/14 01:57:12;;;;;;;17.98;10.68;;;;;;;13.81;100.00;101490.25;10453806;28;20045;-70
2023/08/14 02:02:13;;;;;;;35.38;10.88;;;;;;;13.81;100.00;101495.81;10453952;28;20477;-70
2023/08/14 02:07:13;;;;;;;20.38;10.82;;;;;;;13.80;100.00;101498.81;10478387;28;20071;-71
2023/08/14 02:12:14;;;;;;;18.65;9.60;;;;;;;13.79;100.00;101492.47;10472931;28;20112;-69
2023/08/14 02:17:14;;;;;;;19.02;10.98;;;;;;;13.77;100.00;101489.13;10478268;28;20045;-70
2023/08/14 02:22:14;;;;;;;22.48;11.13;;;;;;;13.75;100.00;101480.25;10471881;28;20037;-70
2023/08/14 02:27:15;;;;;;;19.60;10.25;;;;;;;13.70;100.00;101482.94;10475857;28;20052;-70
2023/08/14 02:32:15;;;;;;;18.92;10.65;;;;;;;13.64;100.00;101478.44;10475281;28;20075;-70
2023/08/14 02:37:17;;;;;;;16.98;9.48;;;;;;;13.76;100.00;101487.44;10457797;28;20044;-70
2023/08/14 02:42:18;;;;;;;18.42;10.20;;;;;;;13.61;100.00;101476.22;10474607;28;20056;-70
2023/08/14 02:47:18;;;;;;;15.77;10.07;;;;;;;13.58;100.00;101468.41;10473186;28;20044;-70
2023/08/14 02:52:19;;;;;;;16.80;10.80;;;;;;;13.55;100.00;101458.72;10470344;28;20033;-70
2023/08/14 02:57:19;;;;;;;20.95;10.32;;;;;;;13.63;100.00;101466.56;10467371;28;20044;-70
2023/08/14 03:02:19;;;;;;;18.20;10.98;;;;;;;13.61;100.00;101467.91;10453624;28;20033;-70
2023/08/14 03:07:20;;;;;;;18.80;10.68;;;;;;;13.60;100.00;101460.69;10476587;28;20045;-69
2023/08/14 03:12:20;;;;;;;18.58;9.70;;;;;;;13.53;100.00;101458.13;10442214;28;20088;-69
2023/08/14 03:17:21;;;;;;;18.50;10.32;;;;;;;13.46;100.00;101461.13;10411104;28;20053;-70
2023/08/14 03:22:21;;;;;;;19.25;10.73;;;;;;;13.47;100.00;101454.47;10458960;28;20032;-70
2023/08/14 03:27:22;;;;;;;17.15;9.60;;;;;;;13.37;100.00;101459.06;10461187;28;20049;-70
2023/08/14 03:32:22;;;;;;;17.98;10.82;;;;;;;13.32;100.00;101446.00;10460674;28;20033;-70
2023/08/14 03:37:23;;;;;;;22.80;11.77;;;;;;;13.23;100.00;101450.28;10458212;28;20041;-70
2023/08/14 03:42:23;;;;;;;21.65;11.55;;;;;;;13.18;100.00;101459.34;10463778;28;20066;-70
2023/08/14 03:47:24;;;;;;;18.83;10.77;;;;;;;13.18;100.00;101470.41;10480876;28;20037;-69
2023/08/14 03:52:24;;;;;;;18.38;10.68;;;;;;;13.15;100.00;101475.63;10469363;28;20032;-70
2023/08/14 03:57:25;;;;;;;19.75;11.82;;;;;;;13.16;100.00;101480.06;10477201;28;20041;-69
2023/08/14 04:02:25;;;;;;;20.58;10.82;;;;;;;13.08;100.00;101476.66;10468864;28;20479;-70
2023/08/14 04:07:26;;;;;;;19.92;11.75;;;;;;;13.12;100.00;101472.31;10463298;28;20396;-70
2023/08/14 04:12:26;;;;;;;21.23;11.85;;;;;;;13.06;100.00;101489.06;10475909;28;20504;-71
2023/08/14 04:17:27;;;;;;;21.17;12.13;;;;;;;13.10;100.00;101474.50;10484341;28;20056;-70
2023/08/14 04:22:28;;;;;;;21.02;11.55;;;;;;;13.15;100.00;101478.38;10475414;28;20396;-70
2023/08/14 04:27:29;;;;;;;20.98;11.93;;;;;;;13.17;100.00;101465.13;10472445;28;20045;-69
2023/08/14 04:32:29;;;;;;;25.55;12.73;;;;;;;13.22;100.00;101466.03;10462620;28;20051;-71
2023/08/14 04:37:30;;;;;;;26.05;12.80;;;;;;;13.25;100.00;101464.69;10476332;28;20045;-70
2023/08/14 04:42:32;;;;;;;27.63;13.43;;;;;;;13.27;100.00;101462.50;10446803;28;20094;-70
2023/08/14 04:47:32;;;;;;;24.70;12.93;;;;;;;13.30;100.00;101459.25;10443057;28;20068;-70
2023/08/14 04:52:33;;;;;;;27.60;13.68;;;;;;;13.37;100.00;101457.13;10456136;28;20036;-70
2023/08/14 04:57:33;;;;;;;25.25;13.65;;;;;;;13.45;100.00;101464.97;10457392;28;20047;-70
2023/08/14 05:02:34;;;;;;;21.48;13.18;;;;;;;13.55;100.00;101458.72;10456987;28;20037;-70
2023/08/14 05:07:34;;;;;;;23.10;12.70;;;;;;;13.68;100.00;101446.38;10457619;28;20343;-70
2023/08/14 05:12:35;;;;;;;28.55;13.75;;;;;;;13.87;100.00;101455.16;10458224;28;20444;-70
2023/08/14 05:17:35;;;;;;;28.02;14.13;;;;;;;14.03;100.00;101458.91;10443787;28;20098;-70
2023/08/14 05:22:36;;;;;;;25.08;13.35;;;;;;;14.24;100.00;101460.75;10456375;28;20044;-70
2023/08/14 05:27:38;;;;;;;24.45;13.60;;;;;;;14.43;100.00;101446.50;10447804;28;20052;-70
2023/08/14 05:32:40;;;;;;;24.27;14.23;;;;;;;14.47;100.00;101430.97;10450344;28;20465;-70
2023/08/14 05:37:40;;;;;;;22.40;14.40;;;;;;;14.57;100.00;101450.47;10453213;28;20120;-69
2023/08/14 05:42:41;;;;;;;23.40;14.68;;;;;;;14.70;100.00;101446.44;10454619;28;20108;-70
2023/08/14 05:47:41;;;;;;;23.23;14.02;;;;;;;14.96;100.00;101461.25;10443384;28;20053;-70
2023/08/14 05:52:43;;;;;;;25.85;15.48;;;;;;;15.22;100.00;101464.16;10420996;28;20553;-70
2023/08/14 05:57:43;;;;;;;21.83;13.85;;;;;;;15.49;100.00;101455.63;10429367;28;20097;-70
2023/08/14 06:02:44;;;;;;;20.65;13.50;;;;;;;15.58;100.00;101465.09;10432756;28;20046;-70
2023/08/14 06:07:47;;;;;;;22.38;12.25;;;;;;;15.68;100.00;101478.16;10434127;28;20036;-70
2023/08/14 06:12:50;;;;;;;21.02;12.82;;;;;;;15.80;100.00;101473.22;10455331;28;20059;-70
2023/08/14 06:17:51;;;;;;;18.48;11.95;;;;;;;15.91;100.00;101472.13;10472546;28;20072;-70
2023/08/14 06:22:51;;;;;;;18.27;12.05;;;;;;;16.01;100.00;101470.47;10452549;28;20453;-69
2023/08/14 06:27:52;;;;;;;16.05;11.52;;;;;;;16.18;100.00;101473.81;10455665;28;20037;-70
2023/08/14 06:32:53;;;;;;;24.27;13.63;;;;;;;16.29;100.00;101494.94;10482222;28;20043;-69
2023/08/14 06:37:53;;;;;;;16.23;10.13;;;;;;;16.55;100.00;101478.25;10488187;28;20496;-70
2023/08/14 06:42:54;;;;;;;15.85;11.30;;;;;;;16.80;100.00;101482.09;10480512;28;20056;-70
2023/08/14 06:47:54;;;;;;;13.93;9.20;;;;;;;16.99;100.00;101479.56;10477491;28;20075;-69
2023/08/14 06:52:55;;;;;;;13.50;9.25;;;;;;;17.09;100.00;101477.56;10483474;28;20056;-70
2023/08/14 06:57:55;;;;;;;15.95;8.32;;;;;;;17.16;100.00;101480.06;10479165;28;20037;-69
2023/08/14 07:02:56;;;;;;;15.38;10.38;;;;;;;17.31;100.00;101484.75;10485978;28;20033;-69
2023/08/14 07:07:56;;;;;;;10.70;7.93;;;;;;;17.39;100.00;101489.72;10483486;28;20037;-69
2023/08/14 07:12:57;;;;;;;10.88;7.25;;;;;;;17.48;100.00;101493.56;10481271;28;20068;-69
2023/08/14 07:17:57;;;;;;;15.25;8.30;;;;;;;17.67;100.00;101496.53;10477699;28;20041;-69
2023/08/14 07:22:57;;;;;;;12.23;7.93;;;;;;;17.79;100.00;101498.97;10443533;28;20048;-69
2023/08/14 07:27:58;;;;;;;12.40;7.35;;;;;;;17.77;100.00;101509.56;10444671;28;20056;-69
2023/08/14 07:32:58;;;;;;;11.50;6.80;;;;;;;17.69;100.00;101516.59;10446189;28;20052;-68
2023/08/14 07:37:59;;;;;;;13.80;8.73;;;;;;;17.79;100.00;101523.19;10445523;28;20087;-68
2023/08/14 07:43:00;;;;;;;8.70;7.00;;;;;;;17.97;100.00;101532.88;10444866;28;20048;-69
2023/08/14 07:48:00;;;;;;;9.05;7.00;;;;;;;18.14;100.00;101527.75;10444431;28;20295;-68
2023/08/14 07:53:01;;;;;;;7.72;6.28;;;;;;;18.46;100.00;101526.38;10448310;28;20041;-67
2023/08/14 07:58:01;;;;;;;14.13;7.13;;;;;;;18.94;100.00;101523.72;10445378;28;20041;-67
2023/08/14 08:03:02;;;;;;;9.57;6.03;;;;;;;19.50;100.00;101520.28;10442061;28;20029;-67
2023/08/14 08:08:03;;;;;;;8.75;5.90;;;;;;;19.96;100.00;101516.88;10446575;28;20048;-67
2023/08/14 08:13:03;;;;;;;7.03;4.65;;;;;;;20.51;100.00;101521.06;10454492;28;20500;-67
2023/08/14 08:18:04;;;;;;;8.57;4.65;;;;;;;20.94;100.00;101506.88;10469655;28;20082;-68
2023/08/14 08:23:05;;;;;;;8.70;3.88;;;;;;;21.01;100.00;101510.09;10445371;28;20112;-67
2023/08/14 08:28:05;;;;;;;5.85;2.85;;;;;;;21.38;100.00;101494.22;10452951;28;20401;-67
2023/08/14 08:33:06;;;;;;;8.00;3.13;;;;;;;21.43;100.00;101482.09;10453103;28;20105;-68
2023/08/14 08:38:06;;;;;;;6.72;3.42;;;;;;;21.74;100.00;101479.44;10452618;28;20041;-68
2023/08/14 08:43:07;;;;;;;6.20;2.45;;;;;;;21.91;100.00;101474.00;10454023;28;20033;-68
2023/08/14 08:48:07;;;;;;;3.75;2.10;;;;;;;21.96;100.00;101470.25;10421721;28;20052;-69
2023/08/14 08:53:08;;;;;;;4.13;1.63;;;;;;;22.10;100.00;101459.00;10479739;28;20495;-69
2023/08/14 08:58:08;;;;;;;5.55;2.08;;;;;;;22.11;100.00;101450.22;10473059;28;20037;-69
2023/08/14 09:03:09;;;;;;;2.75;1.88;;;;;;;22.34;100.00;101465.09;10415767;28;20030;-68
2023/08/14 09:08:09;;;;;;;4.55;1.52;;;;;;;22.45;100.00;101460.06;10417569;28;20041;-69
2023/08/14 09:13:10;;;;;;;3.50;1.65;;;;;;;22.43;100.00;101455.91;10397231;28;20040;-69
2023/08/14 09:18:10;;;;;;;5.35;1.90;;;;;;;22.74;100.00;101442.72;10415562;28;20056;-69
2023/08/14 09:23:14;;;;;;;5.22;1.67;;;;;;;22.94;100.00;101443.28;10415345;28;20201;-69
2023/08/14 09:28:14;;;;;;;3.08;1.75;;;;;;;22.61;100.00;101438.03;10397565;28;20493;-69
2023/08/14 09:33:14;;;;;;;5.63;1.80;;;;;;;22.62;100.00;101453.72;10397062;28;20049;-69
2023/08/14 09:38:15;;;;;;;3.78;2.20;;;;;;;22.94;100.00;101460.13;10416320;28;20083;-69
2023/08/14 09:43:16;;;;;;;5.93;1.92;;;;;;;23.27;100.00;101457.78;10415239;28;20037;-69
2023/08/14 09:48:16;;;;;;;6.15;1.70;;;;;;;23.40;100.00;101447.59;10444207;28;20036;-69
2023/08/14 09:53:17;;;;;;;4.72;2.08;;;;;;;23.13;100.00;101445.84;10455473;28;20045;-70
2023/08/14 09:58:17;;;;;;;10.13;2.17;;;;;;;23.39;100.00;101447.91;10454135;28;20431;-69
2023/08/14 10:03:18;;;;;;;5.05;2.42;;;;;;;23.68;100.00;101441.69;10457363;28;20063;-68
2023/08/14 10:08:18;;;;;;;4.50;1.48;;;;;;;23.80;100.00;101439.06;10462080;28;20125;-69
2023/08/14 10:13:19;;;;;;;6.63;1.90;;;;;;;24.12;100.00;101428.44;10440819;28;20044;-69
2023/08/14 10:18:20;;;;;;;5.30;1.50;;;;;;;24.28;100.00;101409.88;10461170;28;20037;-69
2023/08/14 10:23:20;;;;;;;4.63;1.38;;;;;;;24.60;100.00;101413.31;10445678;28;20037;-69
2023/08/14 10:28:21;;;;;;;4.78;1.52;;;;;;;24.54;100.00;101403.41;10462402;28;20037;-69
2023/08/14 10:33:21;;;;;;;7.25;2.08;;;;;;;24.43;100.00;101397.25;10463130;28;20381;-69
2023/08/14 10:38:24;;;;;;;3.95;1.40;;;;;;;24.79;100.00;101389.53;10436409;28;20580;-68
2023/08/14 10:43:27;;;;;;;2.75;1.98;;;;;;;25.23;100.00;101368.41;10453980;28;20041;-67
2023/08/14 10:48:28;;;;;;;3.13;2.00;;;;;;;25.39;100.00;101376.28;10455597;28;20033;-68
2023/08/14 10:53:31;;;;;;;5.40;1.35;;;;;;;25.07;100.00;101382.25;10434342;28;20033;-68
2023/08/14 10:58:32;;;;;;;4.72;1.65;;;;;;;25.44;100.00;101385.34;10461170;28;20433;-67
2023/08/14 11:03:34;;;;;;;5.60;1.27;;;;;;;26.14;100.00;101364.97;10462225;28;20045;-68
2023/08/14 11:08:34;;;;;;;3.08;1.10;;;;;;;26.07;100.00;101373.22;10461917;28;20041;-69
2023/08/14 11:13:35;;;;;;;5.13;1.00;;;;;;;25.97;100.00;101375.28;10427483;28;20041;-68
2023/08/14 11:18:35;;;;;;;3.97;0.77;;;;;;;26.29;100.00;101369.94;10456094;28;20037;-68
2023/08/14 11:23:36;;;;;;;2.78;1.02;;;;;;;25.97;100.00;101354.72;10448754;28;20039;-68
2023/08/14 11:28:36;;;;;;;3.03;0.85;;;;;;;26.46;100.00;101349.16;10462181;28;20061;-70
2023/08/14 11:33:36;;;;;;;2.13;1.20;;;;;;;26.91;100.00;101358.72;10484105;28;20100;-71
2023/08/14 11:38:37;;;;;;;2.33;0.98;;;;;;;27.25;100.00;101353.78;10381028;28;20091;-67
2023/08/14 11:43:37;;;;;;;4.47;0.85;;;;;;;27.40;100.00;101333.22;10397852;28;20048;-70
2023/08/14 11:48:41;;;;;;;3.08;1.02;;;;;;;27.42;100.00;101336.50;10419958;28;20049;-68
2023/08/14 11:53:41;;;;;;;4.45;0.88;;;;;;;27.84;100.00;101336.09;10456737;28;20028;-71
2023/08/14 11:58:42;;;;;;;4.13;1.23;;;;;;;27.20;100.00;101317.22;10439890;28;20048;-68
2023/08/14 12:03:42;;;;;;;6.15;1.10;;;;;;;27.31;100.00;101324.06;10444446;28;20061;-67
2023/08/14 12:08:43;;;;;;;3.90;1.08;;;;;;;28.25;100.00;101325.50;10401857;28;20037;-68
2023/08/14 12:17:19;;;;;;;2.80;0.98;;;;;;;29.61;95.29;101319.41;10502603;27;20120;-70
2023/08/14 12:22:24;;;;;;;2.90;0.80;;;;;;;29.62;93.36;101306.84;10458461;28;20093;-69
2023/08/14 12:27:28;;;;;;;3.13;0.83;;;;;;;29.77;94.47;101319.34;10454412;28;20106;-70
2023/08/14 12:32:28;;;;;;;4.00;1.20;;;;;;;30.55;87.64;101294.41;10465956;28;20040;-71
2023/08/14 12:37:29;;;;;;;2.25;0.90;;;;;;;30.70;86.25;101300.31;10475068;28;20040;-71
2023/08/14 12:42:29;;;;;;;4.10;1.75;;;;;;;30.63;85.25;101298.16;10486341;28;20060;-68
2023/08/14 12:47:30;;;;;;;3.38;1.08;;;;;;;30.86;87.89;101309.44;10471732;28;20037;-67
2023/08/14 12:52:30;;;;;;;2.95;1.15;;;;;;;31.57;81.20;101286.91;10478608;28;20383;-70
2023/08/14 12:57:31;;;;;;;1.75;1.00;;;;;;;31.66;77.26;101275.19;10457676;28;20492;-71
2023/08/14 13:02:31;;;;;;;2.95;1.00;;;;;;;31.72;78.88;101289.91;10466856;28;20175;-71
2023/08/14 13:07:32;;;;;;;3.53;1.40;;;;;;;32.12;75.42;101279.75;10452053;28;20041;-72
2023/08/14 13:12:33;;;;;;;2.22;0.93;;;;;;;31.91;72.79;101274.63;10434984;28;20045;-70
2023/08/14 13:17:33;;;;;;;3.42;1.02;;;;;;;31.99;74.25;101279.22;10467398;28;20226;-74
2023/08/14 13:22:34;;;;;;;3.33;0.80;;;;;;;32.50;72.41;101274.78;10440004;28;20124;-74
2023/08/14 13:27:34;;;;;;;4.45;0.88;;;;;;;32.44;74.74;101277.16;10433275;28;20036;-69
2023/08/14 13:32:35;;;;;;;4.28;0.98;;;;;;;31.57;73.04;101271.84;10430017;28;20148;-70
2023/08/14 13:37:35;;;;;;;2.60;1.10;;;;;;;30.68;76.87;101277.13;10422852;28;20045;-69
2023/08/14 13:42:36;;;;;;;2.85;0.90;;;;;;;30.37;78.31;101271.38;10433188;28;20039;-69
2023/08/14 13:47:36;;;;;;;3.70;1.05;;;;;;;31.23;75.58;101276.69;10427274;28;20038;-69
2023/08/14 13:52:36;;;;;;;2.53;0.85;;;;;;;31.82;71.03;101243.66;10424112;28;20050;-72
2023/08/14 13:57:37;;;;;;;4.05;0.73;;;;;;;31.72;74.12;101259.41;10436417;28;20037;-70
2023/08/14 14:02:37;;;;;;;3.25;1.08;;;;;;;32.36;71.96;101244.13;10442569;28;20057;-70
2023/08/14 14:07:38;;;;;;;2.75;0.90;;;;;;;32.68;69.80;101230.16;10419005;28;20104;-72
2023/08/14 14:12:38;;;;;;;3.60;1.25;;;;;;;32.63;69.57;101233.34;10439003;28;20054;-68
2023/08/14 14:17:39;;;;;;;2.08;0.80;;;;;;;32.94;67.70;101217.63;10443335;28;20037;-71
2023/08/14 14:22:39;;;;;;;3.95;0.80;;;;;;;33.44;68.90;101219.88;10435377;28;20058;-71
2023/08/14 14:27:40;;;;;;;3.50;1.20;;;;;;;33.35;66.43;101216.59;10438557;28;20037;-68
2023/08/14 14:32:40;;;;;;;2.65;0.82;;;;;;;32.57;67.39;101203.59;10419382;28;20041;-69
2023/08/14 14:37:41;;;;;;;3.83;0.90;;;;;;;31.82;69.89;101218.03;10434298;28;20060;-69
2023/08/14 14:42:41;;;;;;;6.05;1.30;;;;;;;31.61;70.35;101212.09;10428524;28;20041;-68
2023/08/14 14:47:42;;;;;;;3.58;1.15;;;;;;;32.36;68.88;101202.22;10433406;28;20044;-68
2023/08/14 14:52:42;;;;;;;3.92;1.30;;;;;;;32.56;66.62;101196.28;10450226;28;20049;-66
2023/08/14 14:57:43;;;;;;;3.50;1.02;;;;;;;33.07;65.19;101188.75;10442611;28;20049;-68
2023/08/14 15:02:43;;;;;;;5.85;1.33;;;;;;;32.53;68.32;101192.13;10439559;28;20029;-69
2023/08/14 15:07:46;;;;;;;3.70;1.45;;;;;;;31.98;69.18;101187.25;10434463;28;20033;-69
2023/08/14 15:12:46;;;;;;;4.75;1.63;;;;;;;31.96;67.34;101186.03;10440195;28;20041;-71
2023/08/14 15:17:47;;;;;;;4.50;1.38;;;;;;;32.21;67.16;101172.00;10435173;28;20521;-68
2023/08/14 15:22:47;;;;;;;4.80;1.17;;;;;;;32.52;66.39;101166.91;10419082;28;20132;-72
2023/08/14 15:27:48;;;;;;;2.28;1.10;;;;;;;32.14;65.95;101137.75;10423541;28;20037;-68
2023/08/14 15:32:48;;;;;;;2.78;1.38;;;;;;;31.99;69.52;101165.31;10429714;28;20105;-69
2023/08/14 15:37:49;;;;;;;4.18;1.30;;;;;;;31.77;69.15;101152.91;10427789;28;20048;-71
2023/08/14 15:42:49;;;;;;;3.88;1.83;;;;;;;31.83;71.92;101162.72;10427715;28;20037;-71
2023/08/14 15:47:50;;;;;;;3.63;1.15;;;;;;;32.17;69.33;101156.91;10421098;28;20040;-73
2023/08/14 15:52:51;;;;;;;2.88;1.35;;;;;;;32.59;68.11;101147.00;10403088;28;20042;-72
2023/08/14 15:57:51;;;;;;;2.55;1.30;;;;;;;32.98;66.82;101140.66;10421942;28;20041;-67
2023/08/14 16:02:52;;;;;;;4.00;1.30;;;;;;;32.97;65.98;101139.00;10421592;28;20056;-66
2023/08/14 16:07:52;;;;;;;3.25;1.23;;;;;;;33.11;64.06;101133.38;10419923;28;20073;-73
2023/08/14 16:12:52;;;;;;;3.75;1.17;;;;;;;32.84;64.16;101117.78;10402948;28;20041;-68
2023/08/14 16:17:53;;;;;;;3.25;1.13;;;;;;;32.79;64.35;101121.06;10421300;28;20052;-71
2023/08/14 16:22:53;;;;;;;7.40;1.20;;;;;;;31.68;68.76;101138.19;10428321;28;20112;-70
2023/08/14 16:27:54;;;;;;;3.97;1.45;;;;;;;30.32;70.10;101143.06;10418699;28;20033;-70
2023/08/14 16:32:54;;;;;;;2.55;1.00;;;;;;;29.88;74.18;101152.91;10429334;28;20042;-69
2023/08/14 16:37:55;;;;;;;4.88;1.70;;;;;;;29.00;72.97;101130.16;10417268;28;20037;-68
2023/08/14 16:42:55;;;;;;;3.53;1.42;;;;;;;27.72;80.23;101158.78;10433227;28;20061;-66
2023/08/14 16:47:56;;;;;;;3.00;1.25;;;;;;;26.78;85.53;101172.31;10433496;28;20052;-67
2023/08/14 16:52:56;;;;;;;3.08;1.20;;;;;;;26.11;88.49;101176.66;10449435;28;20417;-67
2023/08/14 16:57:57;;;;;;;5.28;1.63;;;;;;;25.79;100.00;101198.91;10440522;28;20029;-67
2023/08/14 17:02:57;;;;;;;5.00;1.83;;;;;;;25.42;100.00;101184.72;10448976;28;20394;-67
2023/08/14 17:07:58;;;;;;;4.38;1.50;;;;;;;25.18;100.00;101206.00;10443451;28;20406;-67
2023/08/14 17:12:58;;;;;;;3.85;1.90;;;;;;;25.08;100.00;101195.16;10446225;28;20038;-67
2023/08/14 17:17:58;;;;;;;4.70;1.40;;;;;;;24.97;100.00;101208.00;10452856;28;20040;-67
2023/08/14 17:22:59;;;;;;;9.70;1.98;;;;;;;24.71;100.00;101217.50;10445543;28;20302;-68
2023/08/14 17:27:59;;;;;;;3.05;1.10;;;;;;;24.36;100.00;101212.06;10446288;28;20037;-67
2023/08/14 17:33:00;;;;;;;2.33;1.63;;;;;;;24.14;100.00;101226.41;10435850;28;20052;-68
2023/08/14 17:38:00;;;;;;;5.93;1.73;;;;;;;23.92;100.00;101225.50;10445334;28;20695;-68
2023/08/14 17:43:01;;;;;;;3.97;1.60;;;;;;;23.67;100.00;101224.41;10443559;28;20045;-67
2023/08/14 17:48:01;;;;;;;6.55;1.85;;;;;;;23.52;100.00;101217.34;10426958;28;20044;-68
2023/08/14 17:53:02;;;;;;;4.28;1.63;;;;;;;23.43;100.00;101212.91;10444017;28;20473;-68
2023/08/14 17:58:03;;;;;;;2.70;1.58;;;;;;;23.37;100.00;101212.25;10443460;28;20060;-65
2023/08/14 18:03:04;;;;;;;3.83;1.25;;;;;;;23.30;100.00;101212.75;10443010;28;20382;-66
2023/08/14 18:08:04;;;;;;;4.75;1.48;;;;;;;23.16;100.00;101204.50;10443064;28;20033;-65
2023/08/14 18:13:05;;;;;;;3.58;1.63;;;;;;;23.08;100.00;101213.75;10452914;28;20061;-65
2023/08/14 18:18:05;;;;;;;3.40;1.77;;;;;;;22.92;100.00;101219.03;10440635;28;20050;-65
2023/08/14 18:23:06;;;;;;;3.58;2.10;;;;;;;22.69;100.00;101223.13;10444159;28;20071;-65
2023/08/14 18:28:06;;;;;;;4.45;1.52;;;;;;;22.45;100.00;101223.56;10441724;28;20049;-65
2023/08/14 18:33:07;;;;;;;9.90;2.30;;;;;;;22.21;100.00;101229.59;10433905;28;20040;-65
2023/08/14 18:38:08;;;;;;;6.15;1.90;;;;;;;21.94;100.00;101237.06;10429841;28;20120;-65
2023/08/14 18:43:08;;;;;;;2.92;1.90;;;;;;;21.66;100.00;101230.81;10438437;28;20166;-65
2023/08/14 18:48:09;;;;;;;3.55;1.77;;;;;;;21.40;100.00;101231.47;10446480;28;20029;-65
2023/08/14 18:53:09;;;;;;;8.18;1.75;;;;;;;21.16;100.00;101228.97;10440728;28;20231;-66
2023/08/14 18:58:10;;;;;;;5.30;1.77;;;;;;;20.94;100.00;101241.81;10443472;28;20047;-65
2023/08/14 19:03:10;;;;;;;5.97;2.20;;;;;;;20.75;100.00;101244.75;10437213;28;20037;-64
2023/08/14 19:08:11;;;;;;;4.40;2.38;;;;;;;20.33;100.00;101195.59;10459097;28;20068;-65
2023/08/14 19:13:11;;;;;;;5.35;2.53;;;;;;;20.48;100.00;101236.38;10437341;28;20038;-65
2023/08/14 19:18:12;;;;;;;2.65;2.00;;;;;;;20.32;100.00;101239.50;10456891;28;20438;-66
2023/08/14 19:23:12;;;;;;;5.95;2.25;;;;;;;20.21;100.00;101242.81;10444632;28;20037;-65
2023/08/14 19:28:13;;;;;;;4.07;2.47;;;;;;;20.08;100.00;101250.88;10439086;28;20037;-66
2023/08/14 19:33:13;;;;;;;5.90;2.13;;;;;;;19.97;100.00;101255.03;10440257;28;20041;-65
2023/08/14 19:38:14;;;;;;;7.13;2.17;;;;;;;19.85;100.00;101251.91;10439529;28;20428;-65
2023/08/14 19:43:14;;;;;;;4.97;2.00;;;;;;;19.70;100.00;101250.16;10439208;28;20033;-66
2023/08/14 19:48:15;;;;;;;3.80;2.00;;;;;;;19.51;100.00;101250.22;10441140;28;20049;-65
2023/08/14 19:53:15;;;;;;;6.55;2.72;;;;;;;19.34;100.00;101239.63;10440834;28;20104;-65
2023/08/14 19:58:16;;;;;;;6.95;2.90;;;;;;;19.20;100.00;101238.75;10439715;28;20080;-65
2023/08/14 20:03:16;;;;;;;4.28;2.22;;;;;;;19.04;100.00;101233.41;10439054;28;20053;-65
2023/08/14 20:08:17;;;;;;;7.10;3.53;;;;;;;18.97;100.00;101232.94;10438986;28;20105;-66
2023/08/14 20:13:18;;;;;;;6.72;3.15;;;;;;;18.87;100.00;101224.72;10453342;28;20037;-66
2023/08/14 20:18:18;;;;;;;7.88;3.63;;;;;;;18.81;100.00;101228.72;10448855;28;20041;-65
2023/08/14 20:23:21;;;;;;;7.38;3.70;;;;;;;18.71;100.00;101238.88;10439939;28;20038;-66
2023/08/14 20:28:21;;;;;;;5.90;3.22;;;;;;;18.54;100.00;101232.97;10426604;28;20081;-65
2023/08/14 20:33:22;;;;;;;8.93;3.58;;;;;;;18.53;100.00;101234.94;10445367;28;20043;-66
2023/08/14 20:38:23;;;;;;;6.40;3.58;;;;;;;18.46;100.00;101237.28;10438898;28;20061;-65
2023/08/14 20:43:28;;;;;;;9.20;3.78;;;;;;;18.39;100.00;101235.97;10432433;28;20061;-64
2023/08/14 20:48:28;;;;;;;6.72;3.83;;;;;;;18.29;100.00;101229.41;10432752;28;20041;-65
2023/08/14 20:53:29;;;;;;;7.10;3.28;;;;;;;18.13;100.00;101225.97;10435672;28;20050;-65
2023/08/14 20:58:29;;;;;;;7.38;3.78;;;;;;;18.12;100.00;101242.97;10432606;28;20095;-66
2023/08/14 21:03:30;;;;;;;9.07;4.10;;;;;;;18.10;100.00;101236.88;10435815;28;20064;-64
2023/08/14 21:08:30;;;;;;;6.43;3.90;;;;;;;18.05;100.00;101242.53;10431438;28;20050;-65
2023/08/14 21:13:31;;;;;;;4.82;3.70;;;;;;;18.02;100.00;101240.31;10445971;28;20049;-65
2023/08/14 21:18:31;;;;;;;12.15;5.70;;;;;;;17.95;100.00;101235.91;10431292;28;20037;-65
2023/08/14 21:23:32;;;;;;;8.15;3.97;;;;;;;17.98;100.00;101233.66;10438819;28;20050;-65
2023/08/14 21:28:32;;;;;;;8.07;4.40;;;;;;;17.92;100.00;101232.88;10432374;28;20067;-65
2023/08/14 21:33:33;;;;;;;8.15;4.30;;;;;;;17.85;100.00;101226.84;10439243;28;20053;-65
2023/08/14 21:38:33;;;;;;;7.85;5.00;;;;;;;17.54;100.00;101186.19;10461018;28;20052;-65
2023/08/14 21:43:34;;;;;;;12.35;5.25;;;;;;;17.72;100.00;101208.84;10459764;28;20049;-65
2023/08/14 21:48:34;;;;;;;9.23;5.53;;;;;;;17.64;100.00;101229.81;10437353;28;20068;-65
2023/08/14 21:53:34;;;;;;;10.65;6.13;;;;;;;17.64;100.00;101217.84;10445484;28;20045;-66
2023/08/14 21:58:35;;;;;;;8.38;5.65;;;;;;;17.58;100.00;101213.44;10450431;28;20051;-65
2023/08/14 22:03:36;;;;;;;6.18;5.00;;;;;;;17.53;100.00;101217.94;10445144;28;20067;-65
2023/08/14 22:08:36;;;;;;;10.50;5.30;;;;;;;17.45;100.00;101210.22;10440753;28;20071;-65
2023/08/14 22:13:37;;;;;;;10.00;5.95;;;;;;;17.46;100.00;101214.66;10446109;28;20052;-65
2023/08/14 22:18:37;;;;;;;10.05;5.45;;;;;;;17.46;100.00;101222.19;10442609;28;20038;-65
2023/08/14 22:23:37;;;;;;;11.18;5.97;;;;;;;17.47;100.00;101235.81;10444057;28;20041;-65
2023/08/14 22:28:39;;;;;;;10.07;5.85;;;;;;;17.51;100.00;101242.47;10447564;28;20033;-65
2023/08/14 22:33:41;;;;;;;12.82;5.93;;;;;;;17.54;100.00;101227.94;10440773;28;20118;-65
2023/08/14 22:38:41;;;;;;;11.75;7.00;;;;;;;17.58;100.00;101224.59;10458533;28;20518;-65
2023/08/14 22:43:42;;;;;;;11.75;6.38;;;;;;;17.54;100.00;101224.34;10441896;28;20038;-65